»·PEaware :: N63D KSBP-KAVX

N63D :: KSBP-KAVX

FLIGHT INFORMATION

Flight Status: Arrived
Operator: Privately registered:
United States
More flights under this callsign
Pilot: Hassan P. (16390)
Aircraft: BEECH AIRCRAFT BARON
(BE58)
More flights by this aircraft type
Origin: KSBP San Luis Co Regl
United States
Destination: KAVX Catalina
United States
More flights between these airports :: More routes between these airports
Route:
File this flight plan on PilotEdge
Remarks:
Altitude:
(Current/Filed)
6,500ft
Speed:
(Current/Filed)
165kts
Departed: 12-Dec-17 06:19 AM
Arrived: 12-Dec-17 07:26 AM
Distance/Time
Traveled:
156nm/1:06
Distance/Time
To Go:
Arrived

Flight Plot

Page will automatically refresh every two minutes.


Map Options




Map Legend


Flown Route
Filed Route
Departure Airport
Arrival Airport
Navaid (VOR, NDB)
Fix

Horizontal Profiles

Position Reports

Time Latitude Longitude Heading Altitude Ground
Speed
12-Dec-17 06:22 35.237199 -120.637547 204 181ft 10kts
12-Dec-17 06:23 35.235141 -120.635021 123 181ft 13kts
12-Dec-17 06:24 35.233274 -120.632225 198 181ft 0kts
12-Dec-17 06:25 35.242408 -120.648164 310 627ft 108kts
12-Dec-17 06:26 35.238622 -120.675842 199 2253ft 103kts
12-Dec-17 06:27 35.208072 -120.678387 155 3464ft 123kts
12-Dec-17 06:28 35.177203 -120.665886 182 4375ft 148kts
12-Dec-17 06:29 35.143823 -120.640795 121 4628ft 173kts
12-Dec-17 06:30 35.140240 -120.633077 120 4626ft 175kts
12-Dec-17 06:31 35.120209 -120.589452 120 4624ft 178kts
12-Dec-17 06:32 35.095666 -120.536538 120 4626ft 179kts
12-Dec-17 06:33 35.070814 -120.483838 120 4628ft 179kts
12-Dec-17 06:34 35.045862 -120.431762 120 4630ft 179kts
12-Dec-17 06:35 35.020562 -120.379326 120 4630ft 179kts
12-Dec-17 06:36 34.995288 -120.327050 120 4631ft 179kts
12-Dec-17 06:37 34.970876 -120.276649 120 4631ft 179kts
12-Dec-17 06:38 34.945646 -120.224655 120 4631ft 180kts
12-Dec-17 06:39 34.952427 -120.173453 74 4629ft 179kts
12-Dec-17 06:40 34.918840 -120.140895 155 4631ft 172kts
12-Dec-17 06:41 34.879772 -120.108447 138 4631ft 170kts
12-Dec-17 06:42 34.844700 -120.069344 135 4631ft 172kts
12-Dec-17 06:43 34.810063 -120.028911 135 4631ft 173kts
12-Dec-17 06:44 34.775339 -119.988139 135 4630ft 173kts
12-Dec-17 06:45 34.740720 -119.947498 135 4625ft 173kts
12-Dec-17 06:46 34.706037 -119.906825 135 4618ft 173kts
12-Dec-17 06:47 34.671549 -119.866426 135 4612ft 173kts
12-Dec-17 06:48 34.636914 -119.825907 135 4605ft 173kts
12-Dec-17 06:49 34.602161 -119.785299 135 4599ft 173kts
12-Dec-17 06:50 34.567123 -119.745333 143 4382ft 179kts
12-Dec-17 06:51 34.527500 -119.739548 188 4101ft 135kts
12-Dec-17 06:52 34.486888 -119.753702 183 4091ft 168kts
12-Dec-17 06:53 34.455065 -119.729864 151 4301ft 158kts
12-Dec-17 06:54 34.416798 -119.708506 160 3398ft 125kts
12-Dec-17 06:55 34.389113 -119.676564 137 3134ft 166kts
12-Dec-17 06:56 34.358707 -119.636662 129 2988ft 168kts
12-Dec-17 06:57 34.328220 -119.595502 131 2984ft 162kts
12-Dec-17 06:58 34.297620 -119.555529 131 2987ft 161kts
12-Dec-17 06:59 34.267095 -119.515896 130 2989ft 161kts
12-Dec-17 07:00 34.236553 -119.476304 130 2991ft 160kts
12-Dec-17 07:01 34.206081 -119.436845 130 2991ft 160kts
12-Dec-17 07:02 34.175652 -119.397503 130 2991ft 160kts
12-Dec-17 07:03 34.145183 -119.358157 130 2991ft 160kts
12-Dec-17 07:04 34.114810 -119.318983 131 2992ft 160kts
12-Dec-17 07:05 34.084160 -119.279495 131 2992ft 161kts
12-Dec-17 07:06 34.053528 -119.240081 130 2992ft 161kts
12-Dec-17 07:07 34.022619 -119.200346 130 2993ft 165kts
12-Dec-17 07:08 33.990737 -119.159414 130 2993ft 168kts
12-Dec-17 07:09 33.958465 -119.118028 130 2993ft 170kts
12-Dec-17 07:10 33.926074 -119.076540 131 2993ft 171kts
12-Dec-17 07:11 33.893706 -119.035131 131 2991ft 171kts
12-Dec-17 07:12 33.861154 -118.993541 130 2990ft 169kts
12-Dec-17 07:13 33.829044 -118.952551 130 2991ft 168kts
12-Dec-17 07:14 33.797224 -118.911978 130 2991ft 166kts
12-Dec-17 07:15 33.765638 -118.871749 131 2991ft 165kts
12-Dec-17 07:16 33.734268 -118.831855 131 2994ft 163kts
12-Dec-17 07:17 33.703065 -118.792219 131 3000ft 163kts
12-Dec-17 07:18 33.676049 -118.749344 120 3054ft 154kts
12-Dec-17 07:19 33.658254 -118.704616 102 3297ft 147kts
12-Dec-17 07:20 33.650088 -118.658616 104 3565ft 151kts
12-Dec-17 07:21 33.633953 -118.611063 113 3826ft 155kts
12-Dec-17 07:22 33.617248 -118.569661 111 4218ft 156kts
12-Dec-17 07:23 33.593512 -118.521648 132 3711ft 171kts
12-Dec-17 07:24 33.559701 -118.487909 135 3554ft 153kts
12-Dec-17 07:25 33.526689 -118.455399 143 3286ft 154kts
12-Dec-17 07:26 33.490052 -118.430438 157 2883ft 147kts
12-Dec-17 07:27 33.447776 -118.419685 168 2803ft 160kts
12-Dec-17 07:28 33.410306 -118.434809 234 2647ft 163kts
12-Dec-17 07:29 33.394633 -118.470354 170 2253ft 109kts
12-Dec-17 07:30 33.384683 -118.445864 33 2081ft 116kts
12-Dec-17 07:31 33.402843 -118.419415 54 1551ft 81kts
12-Dec-17 07:32 33.407216 -118.411394 197 1550ft 9kts
12-Dec-17 07:33 33.405387 -118.414409 234 1550ft 12kts
12-Dec-17 07:34 33.403451 -118.415229 357 1550ft 0kts

Navigation Log

Ident Type
1. KSBP Airport
2. KAVX Airport